createdAt,value
2017-01-28T00:00:50.428Z,270
2017-01-28T00:01:50.537Z,269
2017-01-28T00:02:50.628Z,269
2017-01-28T00:03:50.718Z,269
2017-01-28T00:04:50.842Z,269
2017-01-28T00:05:51.001Z,268
2017-01-28T00:06:51.104Z,269
2017-01-28T00:07:51.235Z,267
2017-01-28T00:08:51.310Z,269
2017-01-28T00:09:51.383Z,269
2017-01-28T00:10:51.456Z,269
2017-01-28T00:11:51.568Z,269
2017-01-28T00:12:51.671Z,269
2017-01-28T00:13:51.778Z,269
2017-01-28T00:14:51.858Z,269
2017-01-28T00:15:51.975Z,269
2017-01-28T00:16:52.056Z,270
2017-01-28T00:17:52.176Z,270
2017-01-28T00:18:52.290Z,270
2017-01-28T00:19:53.103Z,270
2017-01-28T00:20:52.550Z,270
2017-01-28T00:21:52.631Z,270
2017-01-28T00:22:52.710Z,270
2017-01-28T00:23:52.785Z,270
2017-01-28T00:24:52.854Z,269
2017-01-28T00:25:53.070Z,270
2017-01-28T00:26:53.179Z,270
2017-01-28T00:27:53.272Z,270
2017-01-28T00:28:53.357Z,269
2017-01-28T00:29:53.456Z,270
2017-01-28T00:30:53.570Z,270
2017-01-28T00:31:53.685Z,270
2017-01-28T00:32:53.786Z,270
2017-01-28T00:33:53.857Z,269
2017-01-28T00:34:53.924Z,270
2017-01-28T00:35:54.030Z,270
2017-01-28T00:36:54.137Z,270
2017-01-28T00:37:54.273Z,270
2017-01-28T00:38:54.418Z,270
2017-01-28T00:39:54.556Z,270
2017-01-28T00:40:54.654Z,270
2017-01-28T00:41:54.759Z,269
2017-01-28T00:42:54.848Z,270
2017-01-28T00:43:55.002Z,270
2017-01-28T00:44:55.101Z,270
2017-01-28T00:45:55.193Z,269
2017-01-28T00:46:55.285Z,270
2017-01-28T00:47:55.426Z,269
2017-01-28T00:48:55.522Z,270
2017-01-28T00:49:55.590Z,270
2017-01-28T00:50:55.674Z,270
2017-01-28T00:51:55.747Z,270
2017-01-28T00:52:55.904Z,270
2017-01-28T00:53:56.025Z,270
2017-01-28T00:54:56.148Z,270
2017-01-28T00:55:56.285Z,270
2017-01-28T00:56:56.379Z,270
2017-01-28T00:57:56.499Z,270
2017-01-28T00:58:56.612Z,269
2017-01-28T00:59:56.730Z,270
2017-01-28T01:00:56.838Z,270
2017-01-28T01:01:56.957Z,270
2017-01-28T01:02:57.617Z,270
2017-01-28T01:03:57.185Z,270
2017-01-28T01:04:57.274Z,270
2017-01-28T01:05:57.390Z,270
2017-01-28T01:06:57.574Z,270
2017-01-28T01:07:57.706Z,270
2017-01-28T01:08:57.809Z,270
2017-01-28T01:09:57.944Z,270
2017-01-28T01:10:58.071Z,270
2017-01-28T01:11:58.240Z,270
2017-01-28T01:12:58.338Z,270
2017-01-28T01:13:58.457Z,270
2017-01-28T01:14:58.597Z,270
2017-01-28T01:15:58.702Z,271
2017-01-28T01:16:58.877Z,270
2017-01-28T01:17:59.027Z,270
2017-01-28T01:18:59.104Z,270
2017-01-28T01:19:59.197Z,270
2017-01-28T01:20:59.341Z,270
2017-01-28T01:21:59.478Z,271
2017-01-28T01:22:59.612Z,271
2017-01-28T01:23:59.695Z,270
2017-01-28T01:24:59.832Z,270
2017-01-28T01:25:59.944Z,270
2017-01-28T01:27:00.024Z,270
2017-01-28T01:28:00.126Z,271
2017-01-28T01:29:00.195Z,270
2017-01-28T01:30:00.264Z,270
2017-01-28T01:31:00.360Z,270
2017-01-28T01:32:00.462Z,270
2017-01-28T01:33:00.572Z,270
2017-01-28T01:34:00.647Z,270
2017-01-28T01:35:00.748Z,270
2017-01-28T01:36:00.966Z,271
2017-01-28T01:37:01.060Z,270
2017-01-28T01:38:01.169Z,271
2017-01-28T01:39:01.261Z,271
2017-01-28T01:40:01.381Z,270
2017-01-28T01:41:01.494Z,270
2017-01-28T01:42:01.599Z,271
2017-01-28T01:43:01.705Z,270
2017-01-28T01:44:01.860Z,271
2017-01-28T01:45:01.935Z,270
2017-01-28T01:46:02.020Z,271
2017-01-28T01:47:02.176Z,271
2017-01-28T01:48:02.266Z,270
2017-01-28T01:49:02.348Z,271
2017-01-28T01:50:02.444Z,270
2017-01-28T01:51:02.535Z,271
2017-01-28T01:52:02.623Z,271
2017-01-28T01:53:02.758Z,270
2017-01-28T01:54:02.912Z,271
2017-01-28T01:55:03.051Z,271
2017-01-28T01:56:03.165Z,271
2017-01-28T01:57:03.229Z,271
2017-01-28T01:58:03.331Z,271
2017-01-28T01:59:03.491Z,271
2017-01-28T02:00:03.565Z,271
2017-01-28T02:01:03.664Z,271
2017-01-28T02:02:03.760Z,271
2017-01-28T02:03:03.914Z,271
2017-01-28T02:04:04.019Z,271
2017-01-28T02:05:04.093Z,271
2017-01-28T02:06:04.257Z,271
2017-01-28T02:07:04.339Z,271
2017-01-28T02:08:04.517Z,271
2017-01-28T02:09:04.662Z,270
2017-01-28T02:10:04.850Z,271
2017-01-28T02:11:05.014Z,271
2017-01-28T02:12:05.137Z,271
2017-01-28T02:13:05.256Z,271
2017-01-28T02:14:05.406Z,271
2017-01-28T02:15:05.500Z,271
2017-01-28T02:16:05.595Z,271
2017-01-28T02:17:05.687Z,271
2017-01-28T02:18:05.819Z,271
2017-01-28T02:19:05.961Z,271
2017-01-28T02:20:06.060Z,271
2017-01-28T02:21:06.210Z,271
2017-01-28T02:22:06.311Z,271
2017-01-28T02:23:06.377Z,272
2017-01-28T02:24:06.496Z,271
2017-01-28T02:25:07.131Z,272
2017-01-28T02:26:06.727Z,271
2017-01-28T02:27:06.850Z,271
2017-01-28T02:28:06.973Z,271
2017-01-28T02:29:07.077Z,271
2017-01-28T02:30:07.718Z,271
2017-01-28T02:31:07.808Z,271
2017-01-28T02:32:07.917Z,271
2017-01-28T02:33:07.996Z,271
2017-01-28T02:34:08.068Z,271
2017-01-28T02:35:08.320Z,271
2017-01-28T02:36:08.429Z,271
2017-01-28T02:37:08.504Z,271
2017-01-28T02:38:08.598Z,271
2017-01-28T02:39:08.764Z,271
2017-01-28T02:40:08.835Z,271
2017-01-28T02:41:08.923Z,272
2017-01-28T02:42:09.060Z,271
2017-01-28T02:43:09.170Z,272
2017-01-28T02:44:09.286Z,271
2017-01-28T02:45:09.378Z,272
2017-01-28T02:46:09.453Z,271
2017-01-28T02:47:09.617Z,272
2017-01-28T02:48:09.731Z,272
2017-01-28T02:49:09.840Z,271
2017-01-28T02:50:09.916Z,272
2017-01-28T02:51:10.026Z,271
2017-01-28T02:52:10.129Z,272
2017-01-28T02:53:10.242Z,271
2017-01-28T02:54:10.407Z,272
2017-01-28T02:55:10.483Z,272
2017-01-28T02:56:10.582Z,272
2017-01-28T02:57:10.714Z,272
2017-01-28T02:58:10.833Z,272
2017-01-28T02:59:10.949Z,272
2017-01-28T03:00:11.041Z,272
2017-01-28T03:01:11.109Z,272
2017-01-28T03:02:11.200Z,271
2017-01-28T03:03:11.309Z,272
2017-01-28T03:04:11.391Z,272
2017-01-28T03:05:11.467Z,271
2017-01-28T03:06:11.572Z,272
2017-01-28T03:07:11.732Z,271
2017-01-28T03:08:11.818Z,272
2017-01-28T03:09:11.939Z,272
2017-01-28T03:10:12.023Z,272
2017-01-28T03:11:12.125Z,272
2017-01-28T03:12:13.648Z,272
2017-01-28T03:13:13.334Z,272
2017-01-28T03:14:13.478Z,272
2017-01-28T03:15:13.565Z,272
2017-01-28T03:16:13.719Z,272
2017-01-28T03:17:13.827Z,271
2017-01-28T03:18:13.933Z,272
2017-01-28T03:19:14.030Z,272
2017-01-28T03:20:14.099Z,272
2017-01-28T03:21:14.231Z,272
2017-01-28T03:22:14.358Z,271
2017-01-28T03:23:14.450Z,272
2017-01-28T03:24:14.573Z,272
2017-01-28T03:25:14.685Z,271
2017-01-28T03:26:14.793Z,272
2017-01-28T03:27:14.898Z,272
2017-01-28T03:28:14.998Z,272
2017-01-28T03:29:15.077Z,272
2017-01-28T03:30:15.146Z,272
2017-01-28T03:31:15.291Z,272
2017-01-28T03:32:15.404Z,272
2017-01-28T03:33:15.507Z,271
2017-01-28T03:34:15.646Z,271
2017-01-28T03:35:15.757Z,271
2017-01-28T03:36:15.873Z,271
2017-01-28T03:37:15.950Z,272
2017-01-28T03:38:16.075Z,272
2017-01-28T03:39:16.197Z,271
2017-01-28T03:40:16.342Z,271
2017-01-28T03:41:16.472Z,272
2017-01-28T03:42:16.557Z,271
2017-01-28T03:43:16.638Z,271
2017-01-28T03:44:16.797Z,272
2017-01-28T03:45:16.890Z,271
2017-01-28T03:46:17.015Z,271
2017-01-28T03:47:17.178Z,271
2017-01-28T03:48:17.292Z,271
2017-01-28T03:49:17.398Z,271
2017-01-28T03:50:17.510Z,271
2017-01-28T03:51:17.587Z,271
2017-01-28T03:52:17.699Z,271
2017-01-28T03:53:17.779Z,271
2017-01-28T03:54:17.880Z,271
2017-01-28T03:55:17.974Z,271
2017-01-28T03:56:18.076Z,271
2017-01-28T03:57:18.188Z,271
2017-01-28T03:58:18.284Z,271
2017-01-28T03:59:18.395Z,271
2017-01-28T04:00:18.508Z,271
2017-01-28T04:01:18.644Z,271
2017-01-28T04:02:18.727Z,271
2017-01-28T04:03:18.909Z,271
2017-01-28T04:04:18.984Z,271
2017-01-28T04:05:19.170Z,271
2017-01-28T04:06:19.306Z,271
2017-01-28T04:07:19.426Z,271
2017-01-28T04:08:19.518Z,270
2017-01-28T04:09:19.606Z,271
2017-01-28T04:10:19.737Z,270
2017-01-28T04:11:19.932Z,271
2017-01-28T04:12:20.049Z,270
2017-01-28T04:13:20.133Z,271
2017-01-28T04:14:20.228Z,271
2017-01-28T04:15:20.384Z,270
2017-01-28T04:16:20.490Z,270
2017-01-28T04:17:20.571Z,270
2017-01-28T04:18:20.658Z,271
2017-01-28T04:19:20.749Z,270
2017-01-28T04:20:20.885Z,271
2017-01-28T04:21:21.058Z,271
2017-01-28T04:22:21.661Z,270
2017-01-28T04:23:21.208Z,271
2017-01-28T04:24:21.384Z,271
2017-01-28T04:25:21.539Z,271
2017-01-28T04:26:21.655Z,270
2017-01-28T04:27:21.747Z,271
2017-01-28T04:28:21.841Z,271
2017-01-28T04:29:21.968Z,270
2017-01-28T04:30:22.056Z,271
2017-01-28T04:31:22.173Z,271
2017-01-28T04:32:22.269Z,270
2017-01-28T04:33:22.421Z,270
2017-01-28T04:34:22.548Z,270
2017-01-28T04:35:22.663Z,270
2017-01-28T04:36:22.756Z,270
2017-01-28T04:37:22.847Z,270
2017-01-28T04:38:22.920Z,270
2017-01-28T04:39:23.016Z,270
2017-01-28T04:40:23.130Z,271
2017-01-28T04:41:23.301Z,271
2017-01-28T04:42:23.389Z,271
2017-01-28T04:43:23.555Z,271
2017-01-28T04:44:23.664Z,271
2017-01-28T04:45:23.760Z,271
2017-01-28T04:46:23.888Z,271
2017-01-28T04:47:23.994Z,271
2017-01-28T04:48:24.084Z,271
2017-01-28T04:49:24.164Z,270
2017-01-28T04:50:24.261Z,271
2017-01-28T04:51:24.351Z,271
2017-01-28T04:52:24.473Z,271
2017-01-28T04:53:24.569Z,271
2017-01-28T04:54:24.684Z,271
2017-01-28T04:55:24.824Z,271
2017-01-28T04:56:24.959Z,271
2017-01-28T04:57:25.080Z,271
2017-01-28T04:58:25.168Z,271
2017-01-28T04:59:25.274Z,271
2017-01-28T05:00:25.427Z,271
2017-01-28T05:01:25.536Z,271
2017-01-28T05:02:25.611Z,272
2017-01-28T05:03:25.734Z,271
2017-01-28T05:04:25.800Z,271
2017-01-28T05:05:25.967Z,271
2017-01-28T05:06:26.072Z,271
2017-01-28T05:07:26.187Z,271
2017-01-28T05:08:26.274Z,271
2017-01-28T05:09:26.372Z,272
2017-01-28T05:10:26.515Z,272
2017-01-28T05:11:26.628Z,272
2017-01-28T05:12:26.723Z,271
2017-01-28T05:13:26.878Z,271
2017-01-28T05:14:26.983Z,272
2017-01-28T05:15:27.099Z,272
2017-01-28T05:16:27.238Z,272
2017-01-28T05:17:27.349Z,271
2017-01-28T05:18:27.430Z,271
2017-01-28T05:19:27.497Z,271
2017-01-28T05:20:27.613Z,271
2017-01-28T05:21:27.759Z,271
2017-01-28T05:22:27.862Z,271
2017-01-28T05:23:27.963Z,272
2017-01-28T05:24:28.074Z,271
2017-01-28T05:25:28.169Z,271
2017-01-28T05:26:28.256Z,271
2017-01-28T05:27:29.175Z,271
2017-01-28T05:28:28.502Z,272
2017-01-28T05:29:28.606Z,271
2017-01-28T05:30:28.741Z,271
2017-01-28T05:31:28.824Z,271
2017-01-28T05:32:28.937Z,271
2017-01-28T05:33:29.048Z,272
2017-01-28T05:34:29.180Z,271
2017-01-28T05:35:29.293Z,271
2017-01-28T05:36:29.431Z,272
2017-01-28T05:37:29.539Z,271
2017-01-28T05:38:29.625Z,271
2017-01-28T05:39:29.760Z,272
2017-01-28T05:40:29.887Z,271
2017-01-28T05:41:29.973Z,271
2017-01-28T05:42:30.077Z,271
2017-01-28T05:43:30.171Z,272
2017-01-28T05:44:30.281Z,271
2017-01-28T05:45:30.370Z,271
2017-01-28T05:46:30.492Z,271
2017-01-28T05:47:30.596Z,272
2017-01-28T05:48:30.706Z,271
2017-01-28T05:49:31.673Z,271
2017-01-28T05:50:30.883Z,272
2017-01-28T05:51:30.994Z,272
2017-01-28T05:52:31.073Z,271
2017-01-28T05:53:31.155Z,271
2017-01-28T05:54:31.278Z,271
2017-01-28T05:55:32.179Z,271
2017-01-28T05:56:31.517Z,272
2017-01-28T05:57:31.635Z,272
2017-01-28T05:58:31.777Z,272
2017-01-28T05:59:31.867Z,271
2017-01-28T06:00:31.995Z,272
2017-01-28T06:01:32.105Z,272
2017-01-28T06:02:32.184Z,272
2017-01-28T06:03:32.299Z,271
2017-01-28T06:04:33.182Z,271
2017-01-28T06:05:32.559Z,271
2017-01-28T06:06:32.644Z,272
2017-01-28T06:07:32.751Z,272
2017-01-28T06:08:32.860Z,272
2017-01-28T06:09:32.953Z,272
2017-01-28T06:10:33.071Z,272
2017-01-28T06:11:33.202Z,272
2017-01-28T06:12:33.298Z,271
2017-01-28T06:13:33.376Z,272
2017-01-28T06:14:33.497Z,272
2017-01-28T06:15:33.571Z,271
2017-01-28T06:16:33.678Z,272
2017-01-28T06:17:33.805Z,271
2017-01-28T06:18:33.905Z,271
2017-01-28T06:19:33.992Z,272
2017-01-28T06:20:34.080Z,272
2017-01-28T06:21:34.201Z,271
2017-01-28T06:22:34.320Z,271
2017-01-28T06:23:34.451Z,272
2017-01-28T06:24:34.561Z,272
2017-01-28T06:25:35.181Z,272
2017-01-28T06:26:35.682Z,272
2017-01-28T06:27:34.925Z,272
2017-01-28T06:28:35.063Z,271
2017-01-28T06:29:35.208Z,272
2017-01-28T06:30:35.285Z,272
2017-01-28T06:31:35.485Z,271
2017-01-28T06:32:35.571Z,271
2017-01-28T06:33:35.653Z,271
2017-01-28T06:34:35.765Z,272
2017-01-28T06:35:35.869Z,272
2017-01-28T06:36:35.970Z,272
2017-01-28T06:37:36.081Z,272
2017-01-28T06:38:36.158Z,271
2017-01-28T06:39:36.222Z,272
2017-01-28T06:40:36.319Z,272
2017-01-28T06:41:36.399Z,272
2017-01-28T06:42:36.490Z,271
2017-01-28T06:43:36.582Z,272
2017-01-28T06:44:36.676Z,272
2017-01-28T06:45:36.810Z,272
2017-01-28T06:46:36.889Z,272
2017-01-28T06:47:36.952Z,272
2017-01-28T06:48:37.046Z,272
2017-01-28T06:49:37.179Z,272
2017-01-28T06:50:37.280Z,272
2017-01-28T06:51:37.396Z,272
2017-01-28T06:52:37.496Z,272
2017-01-28T06:53:37.603Z,271
2017-01-28T06:54:37.762Z,271
2017-01-28T06:55:37.917Z,272
2017-01-28T06:56:38.014Z,272
2017-01-28T06:57:38.110Z,272
2017-01-28T06:58:38.227Z,272
2017-01-28T06:59:38.297Z,271
2017-01-28T07:00:38.412Z,272
2017-01-28T07:01:38.547Z,271
2017-01-28T07:02:38.664Z,272
2017-01-28T07:03:38.814Z,272
2017-01-28T07:04:38.935Z,272
2017-01-28T07:05:39.023Z,272
2017-01-28T07:06:39.235Z,271
2017-01-28T07:07:39.380Z,271
2017-01-28T07:08:39.496Z,272
2017-01-28T07:09:39.592Z,272
2017-01-28T07:10:39.727Z,272
2017-01-28T07:11:39.803Z,272
2017-01-28T07:12:39.936Z,272
2017-01-28T07:13:40.013Z,272
2017-01-28T07:14:40.077Z,271
2017-01-28T07:15:40.177Z,272
2017-01-28T07:16:40.268Z,272
2017-01-28T07:17:40.361Z,272
2017-01-28T07:18:40.443Z,272
2017-01-28T07:19:40.539Z,272
2017-01-28T07:20:40.671Z,272
2017-01-28T07:21:40.744Z,272
2017-01-28T07:22:40.866Z,271
2017-01-28T07:23:40.969Z,272
2017-01-28T07:24:41.055Z,271
2017-01-28T07:25:41.173Z,272
2017-01-28T07:26:43.188Z,272
2017-01-28T07:27:42.297Z,272
2017-01-28T07:28:42.440Z,272
2017-01-28T07:29:42.549Z,272
2017-01-28T07:30:42.695Z,272
2017-01-28T07:31:42.857Z,272
2017-01-28T07:32:42.932Z,272
2017-01-28T07:33:43.020Z,272
2017-01-28T07:34:43.139Z,272
2017-01-28T07:35:43.269Z,272
2017-01-28T07:36:43.391Z,271
2017-01-28T07:37:43.478Z,271
2017-01-28T07:38:43.624Z,272
2017-01-28T07:39:43.768Z,272
2017-01-28T07:40:43.928Z,271
2017-01-28T07:41:44.068Z,272
2017-01-28T07:42:44.140Z,272
2017-01-28T07:43:44.206Z,272
2017-01-28T07:44:44.350Z,272
2017-01-28T07:45:44.513Z,272
2017-01-28T07:46:44.616Z,272
2017-01-28T07:47:44.722Z,271
2017-01-28T07:48:44.806Z,272
2017-01-28T07:49:44.885Z,271
2017-01-28T07:50:45.004Z,272
2017-01-28T07:51:45.145Z,272
2017-01-28T07:52:45.282Z,271
2017-01-28T07:53:45.365Z,272
2017-01-28T07:54:45.462Z,272
2017-01-28T07:55:45.566Z,271
2017-01-28T07:56:45.646Z,272
2017-01-28T07:57:45.797Z,271
2017-01-28T07:58:45.926Z,271
2017-01-28T07:59:46.046Z,272
2017-01-28T08:00:46.147Z,272
2017-01-28T08:01:46.256Z,272
2017-01-28T08:02:46.410Z,272
2017-01-28T08:03:46.612Z,272
2017-01-28T08:04:46.764Z,272
2017-01-28T08:05:46.891Z,272
2017-01-28T08:06:46.987Z,272
2017-01-28T08:07:47.095Z,272
2017-01-28T08:08:47.695Z,272
2017-01-28T08:09:47.275Z,272
2017-01-28T08:10:47.427Z,272
2017-01-28T08:11:47.532Z,272
2017-01-28T08:12:47.621Z,272
2017-01-28T08:13:47.732Z,272
2017-01-28T08:14:47.883Z,272
2017-01-28T08:15:47.989Z,272
2017-01-28T08:16:48.083Z,272
2017-01-28T08:17:48.246Z,272
2017-01-28T08:18:48.359Z,272
2017-01-28T08:19:48.550Z,272
2017-01-28T08:20:48.731Z,272
2017-01-28T08:21:48.804Z,272
2017-01-28T08:22:49.051Z,272
2017-01-28T08:23:49.705Z,272
2017-01-28T08:24:49.239Z,272
2017-01-28T08:25:49.344Z,272
2017-01-28T08:26:49.452Z,272
2017-01-28T08:27:49.534Z,271
2017-01-28T08:28:49.615Z,272
2017-01-28T08:29:49.731Z,272
2017-01-28T08:30:49.826Z,272
2017-01-28T08:31:49.968Z,272
2017-01-28T08:32:50.103Z,271
2017-01-28T08:33:50.201Z,272
2017-01-28T08:34:50.333Z,272
2017-01-28T08:35:50.423Z,272
2017-01-28T08:36:50.506Z,272
2017-01-28T08:37:50.727Z,272
2017-01-28T08:38:50.799Z,272
2017-01-28T08:39:50.934Z,272
2017-01-28T08:40:51.025Z,271
2017-01-28T08:41:51.116Z,272
2017-01-28T08:42:51.200Z,272
2017-01-28T08:43:51.323Z,272
2017-01-28T08:44:51.469Z,272
2017-01-28T08:45:51.618Z,272
2017-01-28T08:46:51.741Z,272
2017-01-28T08:47:51.842Z,272
2017-01-28T08:48:51.948Z,272
2017-01-28T08:49:52.055Z,271
2017-01-28T08:50:52.149Z,272
2017-01-28T08:51:52.266Z,272
2017-01-28T08:52:52.365Z,272
2017-01-28T08:53:52.451Z,272
2017-01-28T08:54:52.542Z,272
2017-01-28T08:55:52.666Z,272
2017-01-28T08:56:52.816Z,272
2017-01-28T08:57:52.976Z,272
2017-01-28T08:58:53.081Z,272
2017-01-28T08:59:53.186Z,272
2017-01-28T09:00:53.251Z,272
2017-01-28T09:01:53.343Z,272
2017-01-28T09:02:53.471Z,272
2017-01-28T09:03:53.600Z,272
2017-01-28T09:04:53.712Z,272
2017-01-28T09:05:53.784Z,272
2017-01-28T09:06:53.877Z,272
2017-01-28T09:07:53.959Z,272
2017-01-28T09:08:54.055Z,272
2017-01-28T09:09:54.192Z,272
2017-01-28T09:10:54.293Z,272
2017-01-28T09:11:54.392Z,272
2017-01-28T09:12:54.538Z,272
2017-01-28T09:13:55.304Z,272
2017-01-28T09:14:55.410Z,272
2017-01-28T09:15:55.480Z,272
2017-01-28T09:16:56.206Z,272
2017-01-28T09:17:55.650Z,272
2017-01-28T09:18:55.733Z,271
2017-01-28T09:19:55.822Z,272
2017-01-28T09:20:55.910Z,272
2017-01-28T09:21:56.026Z,272
2017-01-28T09:22:56.108Z,272
2017-01-28T09:23:56.174Z,271
2017-01-28T09:24:56.311Z,272
2017-01-28T09:25:56.440Z,272
2017-01-28T09:26:56.521Z,272
2017-01-28T09:27:56.689Z,272
2017-01-28T09:28:56.836Z,272
2017-01-28T09:29:56.915Z,271
2017-01-28T09:30:57.034Z,272
2017-01-28T09:31:57.146Z,272
2017-01-28T09:32:57.242Z,272
2017-01-28T09:33:57.440Z,272
2017-01-28T09:34:57.559Z,272
2017-01-28T09:35:57.632Z,272
2017-01-28T09:36:57.741Z,272
2017-01-28T09:37:57.882Z,271
2017-01-28T09:38:57.991Z,272
2017-01-28T09:39:58.071Z,272
2017-01-28T09:40:58.168Z,272
2017-01-28T09:41:58.257Z,272
2017-01-28T09:42:58.384Z,272
2017-01-28T09:43:58.473Z,272
2017-01-28T09:44:58.549Z,272
2017-01-28T09:45:58.629Z,272
2017-01-28T09:46:58.798Z,272
2017-01-28T09:47:58.930Z,272
2017-01-28T09:48:59.018Z,272
2017-01-28T09:49:59.145Z,272
2017-01-28T09:50:59.216Z,271
2017-01-28T09:51:59.320Z,272
2017-01-28T09:52:59.389Z,271
2017-01-28T09:53:59.505Z,272
2017-01-28T09:54:59.593Z,272
2017-01-28T09:55:59.702Z,272
2017-01-28T09:56:59.799Z,272
2017-01-28T09:57:59.906Z,272
2017-01-28T09:58:59.985Z,271
2017-01-28T10:00:00.053Z,272
2017-01-28T10:01:00.121Z,271
2017-01-28T10:02:00.255Z,272
2017-01-28T10:03:00.349Z,272
2017-01-28T10:04:00.488Z,272
2017-01-28T10:05:00.620Z,272
2017-01-28T10:06:00.777Z,272
2017-01-28T10:07:00.850Z,272
2017-01-28T10:08:00.961Z,272
2017-01-28T10:09:01.059Z,272
2017-01-28T10:10:01.172Z,272
2017-01-28T10:11:01.262Z,271
2017-01-28T10:12:01.430Z,271
2017-01-28T10:13:01.559Z,272
2017-01-28T10:14:01.630Z,272
2017-01-28T10:15:01.730Z,272
2017-01-28T10:16:01.847Z,272
2017-01-28T10:17:01.940Z,272
2017-01-28T10:18:02.091Z,272
2017-01-28T10:19:02.210Z,272
2017-01-28T10:20:02.334Z,272
2017-01-28T10:21:02.481Z,272
2017-01-28T10:22:02.607Z,272
2017-01-28T10:23:02.747Z,272
2017-01-28T10:24:02.902Z,272
2017-01-28T10:25:02.988Z,272
2017-01-28T10:26:03.060Z,272
2017-01-28T10:27:03.156Z,272
2017-01-28T10:28:03.309Z,272
2017-01-28T10:29:03.457Z,272
2017-01-28T10:30:03.589Z,272
2017-01-28T10:31:03.690Z,272
2017-01-28T10:32:03.784Z,272
2017-01-28T10:33:03.900Z,272
2017-01-28T10:34:04.022Z,272
2017-01-28T10:35:04.112Z,271
2017-01-28T10:36:04.288Z,272
2017-01-28T10:37:04.401Z,272
2017-01-28T10:38:04.482Z,272
2017-01-28T10:39:04.632Z,272
2017-01-28T10:40:04.769Z,272
2017-01-28T10:41:04.893Z,272
2017-01-28T10:42:05.037Z,272
2017-01-28T10:43:05.116Z,272
2017-01-28T10:44:05.291Z,272
2017-01-28T10:45:05.393Z,272
2017-01-28T10:46:05.542Z,272
2017-01-28T10:47:05.671Z,272
2017-01-28T10:48:05.806Z,272
2017-01-28T10:49:05.952Z,273
2017-01-28T10:50:06.063Z,272
2017-01-28T10:51:06.218Z,272
2017-01-28T10:52:06.280Z,272
2017-01-28T10:53:06.383Z,272
2017-01-28T10:54:06.475Z,272
2017-01-28T10:55:06.556Z,272
2017-01-28T10:56:06.639Z,272
2017-01-28T10:57:06.721Z,272
2017-01-28T10:58:06.823Z,272
2017-01-28T10:59:06.964Z,272
2017-01-28T11:00:07.060Z,272
2017-01-28T11:01:07.156Z,272
2017-01-28T11:02:07.295Z,272
2017-01-28T11:03:07.400Z,272
2017-01-28T11:04:07.516Z,272
2017-01-28T11:05:07.631Z,272
2017-01-28T11:06:07.734Z,272
2017-01-28T11:07:07.846Z,272
2017-01-28T11:08:07.963Z,268
2017-01-28T11:09:08.078Z,270
2017-01-28T11:10:08.183Z,270
2017-01-28T11:11:08.312Z,271
2017-01-28T11:12:08.426Z,270
2017-01-28T11:13:08.496Z,271
2017-01-28T11:14:08.643Z,271
2017-01-28T11:15:08.725Z,270
2017-01-28T11:16:08.876Z,270
2017-01-28T11:17:09.034Z,281
2017-01-28T11:18:09.161Z,281
2017-01-28T11:19:09.349Z,282
2017-01-28T11:20:09.418Z,281
2017-01-28T11:21:09.516Z,281
2017-01-28T11:22:09.625Z,281
2017-01-28T11:23:09.778Z,282
2017-01-28T11:24:09.904Z,281
2017-01-28T11:25:09.991Z,281
2017-01-28T11:26:10.104Z,281
2017-01-28T11:27:10.245Z,281
2017-01-28T11:28:10.326Z,282
2017-01-28T11:29:10.433Z,281
2017-01-28T11:30:10.519Z,281
2017-01-28T11:31:10.610Z,281
2017-01-28T11:32:10.722Z,281
2017-01-28T11:33:10.817Z,281
2017-01-28T11:34:10.926Z,281
2017-01-28T11:35:11.011Z,281
2017-01-28T11:36:11.177Z,281
2017-01-28T11:37:11.372Z,282
2017-01-28T11:38:11.483Z,281
2017-01-28T11:39:11.611Z,281
2017-01-28T11:40:11.693Z,281
2017-01-28T11:41:11.810Z,282
2017-01-28T11:42:11.924Z,281
2017-01-28T11:43:12.040Z,281
2017-01-28T11:44:12.219Z,281
2017-01-28T11:45:12.374Z,281
2017-01-28T11:46:12.440Z,281
2017-01-28T11:47:12.583Z,281
2017-01-28T11:48:12.672Z,281
2017-01-28T11:49:12.773Z,281
2017-01-28T11:50:12.837Z,281
2017-01-28T11:51:13.003Z,281
2017-01-28T11:52:13.102Z,281
2017-01-28T11:53:13.203Z,281
2017-01-28T11:54:13.334Z,281
2017-01-28T11:55:13.417Z,282
2017-01-28T11:56:13.535Z,281
2017-01-28T11:57:13.609Z,281
2017-01-28T11:58:13.693Z,282
2017-01-28T11:59:13.827Z,281
2017-01-28T12:00:13.979Z,281
2017-01-28T12:01:14.091Z,281
2017-01-28T12:02:14.182Z,282
2017-01-28T12:03:14.312Z,281
2017-01-28T12:04:14.408Z,281
2017-01-28T12:05:14.563Z,281
2017-01-28T12:06:14.736Z,281
2017-01-28T12:07:14.839Z,281
2017-01-28T12:08:14.936Z,281
2017-01-28T12:09:15.052Z,281
2017-01-28T12:10:15.152Z,282
2017-01-28T12:11:15.273Z,281
2017-01-28T12:12:15.377Z,281
2017-01-28T12:13:15.513Z,281
2017-01-28T12:14:15.662Z,281
2017-01-28T12:15:15.749Z,281
2017-01-28T12:16:15.893Z,281
2017-01-28T12:17:16.032Z,281
2017-01-28T12:18:16.143Z,281
2017-01-28T12:19:16.266Z,281
2017-01-28T12:20:16.340Z,281
2017-01-28T12:21:16.453Z,281
2017-01-28T12:22:16.533Z,281
2017-01-28T12:23:16.687Z,281
2017-01-28T12:24:16.835Z,281
2017-01-28T12:25:16.953Z,281
2017-01-28T12:26:17.066Z,281
2017-01-28T12:27:17.172Z,281
2017-01-28T12:28:17.286Z,281
2017-01-28T12:29:17.415Z,281
2017-01-28T12:30:17.517Z,281
2017-01-28T12:31:17.601Z,281
2017-01-28T12:32:17.707Z,281
2017-01-28T12:33:17.799Z,281
2017-01-28T12:34:17.880Z,280
2017-01-28T12:35:17.969Z,281
2017-01-28T12:36:18.072Z,281
2017-01-28T12:37:18.163Z,281
2017-01-28T12:38:18.268Z,281
2017-01-28T12:39:18.383Z,281
2017-01-28T12:40:18.464Z,281
2017-01-28T12:41:18.663Z,282
2017-01-28T12:42:18.817Z,281
2017-01-28T12:43:18.960Z,281
2017-01-28T12:44:19.037Z,282
2017-01-28T12:45:19.156Z,281
2017-01-28T12:46:19.383Z,281
2017-01-28T12:47:19.462Z,281
2017-01-28T12:48:19.622Z,281
2017-01-28T12:49:19.747Z,281
2017-01-28T12:50:19.880Z,282
2017-01-28T12:51:20.019Z,281
2017-01-28T12:52:20.123Z,281
2017-01-28T12:53:20.337Z,281
2017-01-28T12:54:20.470Z,281
2017-01-28T12:55:20.581Z,281
2017-01-28T12:56:20.695Z,281
2017-01-28T12:57:20.835Z,280
2017-01-28T12:58:20.917Z,279
2017-01-28T12:59:21.041Z,280
2017-01-28T13:00:21.170Z,279
2017-01-28T13:01:21.388Z,280
2017-01-28T13:02:21.485Z,279
2017-01-28T13:03:21.608Z,280
2017-01-28T13:04:21.689Z,279
2017-01-28T13:05:21.826Z,279
2017-01-28T13:06:21.980Z,280
2017-01-28T13:07:22.183Z,280
2017-01-28T13:08:22.340Z,280
2017-01-28T13:09:22.441Z,280
2017-01-28T13:10:22.646Z,280
2017-01-28T13:11:22.741Z,280
2017-01-28T13:12:22.850Z,280
2017-01-28T13:13:22.956Z,281
2017-01-28T13:14:23.033Z,280
2017-01-28T13:15:23.167Z,280
2017-01-28T13:16:23.352Z,280
2017-01-28T13:17:23.613Z,280
2017-01-28T13:18:23.717Z,280
2017-01-28T13:19:23.837Z,279
2017-01-28T13:20:23.953Z,279
2017-01-28T13:21:24.086Z,280
2017-01-28T13:22:24.274Z,279
2017-01-28T13:23:24.388Z,279
2017-01-28T13:24:24.436Z,279
2017-01-28T13:25:24.529Z,281
2017-01-28T13:26:24.659Z,280
2017-01-28T13:27:24.751Z,280
2017-01-28T13:28:24.858Z,279
2017-01-28T13:29:24.955Z,279
2017-01-28T13:30:25.136Z,280
2017-01-28T13:31:25.229Z,280
2017-01-28T13:32:25.369Z,279
2017-01-28T13:33:26.260Z,279
2017-01-28T13:34:25.635Z,280
2017-01-28T13:35:25.797Z,280
2017-01-28T13:36:25.936Z,281
2017-01-28T13:37:26.048Z,280
2017-01-28T13:38:26.180Z,280
2017-01-28T13:39:26.293Z,281
2017-01-28T13:40:26.468Z,280
2017-01-28T13:41:26.566Z,280
2017-01-28T13:42:26.671Z,280
2017-01-28T13:43:26.764Z,280
2017-01-28T13:44:26.876Z,280
2017-01-28T13:45:27.034Z,280
2017-01-28T13:46:27.146Z,279
2017-01-28T13:47:27.368Z,279
2017-01-28T13:48:27.492Z,280